Time;durP1;ratioP1;P1;durP2;ratioP2;P2;SDS_P1;SDS_P2;PMS_P1;PMS_P2;Temp;Humidity;BMP_temperature;BMP_pressure;BME280_temperature;BME280_humidity;BME280_pressure;Samples;Min_cycle;Max_cycle;Signal;HPM_P1;HPM_P2
2023/05/28 00:01:09;;;;;;;0.50;0.50;;;12.60;1.00;;;;;;5051242;28;20443;-76
2023/05/28 00:03:41;;;;;;;0.20;0.20;;;12.50;1.00;;;;;;5046518;28;20431;-76
2023/05/28 00:06:08;;;;;;;3.20;0.80;;;12.50;1.00;;;;;;5045048;28;20439;-76
2023/05/28 00:08:35;;;;;;;3.90;0.43;;;12.40;1.00;;;;;;5047651;28;20431;-76
2023/05/28 00:11:02;;;;;;;0.30;0.30;;;12.40;1.00;;;;;;5043046;28;20925;-76
2023/05/28 00:13:34;;;;;;;0.50;0.50;;;12.40;1.00;;;;;;5047491;28;20928;-76
2023/05/28 00:16:06;;;;;;;0.40;0.40;;;12.40;1.00;;;;;;5043564;28;20438;-76
2023/05/28 00:18:33;;;;;;;2.15;0.47;;;12.40;1.00;;;;;;5050991;28;20427;-76
2023/05/28 00:21:00;;;;;;;1.30;0.47;;;12.40;1.00;;;;;;5053217;28;20446;-77
2023/05/28 00:23:27;;;;;;;0.30;0.30;;;12.30;1.00;;;;;;5049936;28;20851;-76
2023/05/28 00:25:54;;;;;;;0.43;0.43;;;12.20;1.00;;;;;;5046737;28;20971;-76
2023/05/28 00:28:45;;;;;;;0.98;0.43;;;12.20;1.00;;;;;;5050498;28;20412;-76
2023/05/28 00:31:12;;;;;;;0.80;0.60;;;12.10;1.00;;;;;;5051618;28;20439;-76
2023/05/28 00:33:43;;;;;;;0.32;0.32;;;12.10;1.00;;;;;;5044832;28;22139;-76
2023/05/28 00:36:12;;;;;;;0.60;0.60;;;12.20;1.00;;;;;;5036703;28;20555;-76
2023/05/28 00:38:39;;;;;;;0.60;0.50;;;12.20;1.00;;;;;;5046485;28;20524;-76
2023/05/28 00:41:06;;;;;;;0.32;0.28;;;12.20;1.00;;;;;;5044091;28;20456;-76
2023/05/28 00:43:35;;;;;;;0.20;0.20;;;12.10;1.00;;;;;;5044930;28;20460;-77
2023/05/28 00:46:05;;;;;;;1.10;0.47;;;12.10;1.00;;;;;;5040733;28;20473;-76
2023/05/28 00:48:32;;;;;;;0.30;0.30;;;11.90;1.00;;;;;;5046000;28;20515;-76
2023/05/28 00:50:59;;;;;;;0.60;0.60;;;11.90;1.00;;;;;;5043837;28;20441;-76
2023/05/28 00:53:26;;;;;;;3.20;0.50;;;11.90;1.00;;;;;;5049137;28;20569;-76
2023/05/28 00:55:53;;;;;;;0.30;0.30;;;11.90;1.00;;;;;;5047474;28;20850;-76
2023/05/28 00:58:21;;;;;;;0.30;0.20;;;11.90;1.00;;;;;;5042610;28;20767;-76
2023/05/28 01:00:48;;;;;;;1.70;0.50;;;11.90;1.00;;;;;;5041988;28;20427;-76
2023/05/28 01:03:16;;;;;;;0.20;0.20;;;11.90;1.00;;;;;;5042531;28;20470;-76
2023/05/28 01:05:45;;;;;;;0.50;0.50;;;11.90;1.00;;;;;;5040940;28;20439;-76
2023/05/28 01:08:12;;;;;;;0.50;0.50;;;12.00;1.00;;;;;;5041685;28;20437;-76
2023/05/28 01:10:39;;;;;;;1.00;0.55;;;12.00;1.00;;;;;;5041505;28;20521;-76
2023/05/28 01:13:07;;;;;;;0.20;0.20;;;12.00;1.00;;;;;;5049117;28;20506;-76
2023/05/28 01:15:35;;;;;;;0.40;0.40;;;11.90;1.00;;;;;;5043721;28;20433;-77
2023/05/28 01:18:03;;;;;;;0.50;0.30;;;11.90;1.00;;;;;;5049065;28;20439;-76
2023/05/28 01:20:30;;;;;;;0.30;0.30;;;11.90;1.00;;;;;;5043262;28;20440;-76
2023/05/28 01:23:16;;;;;;;0.40;0.40;;;11.90;1.00;;;;;;5050385;28;20444;-76
2023/05/28 01:25:44;;;;;;;0.47;0.47;;;11.80;1.00;;;;;;5045079;28;20437;-76
2023/05/28 01:28:14;;;;;;;4.80;0.60;;;11.80;1.00;;;;;;5046220;28;20518;-76
2023/05/28 01:30:43;;;;;;;1.90;1.10;;;11.70;1.00;;;;;;5047528;28;20756;-76
2023/05/28 01:33:13;;;;;;;1.90;0.70;;;11.70;1.00;;;;;;5044835;28;20437;-76
2023/05/28 01:35:42;;;;;;;0.20;0.20;;;11.60;1.00;;;;;;5051669;28;20438;-77
2023/05/28 01:38:11;;;;;;;0.70;0.70;;;11.60;1.00;;;;;;5044673;28;21231;-76
2023/05/28 01:40:44;;;;;;;1.00;0.82;;;11.60;1.00;;;;;;5045969;28;21221;-76
2023/05/28 01:43:11;;;;;;;0.70;0.70;;;11.40;1.00;;;;;;5046608;28;20433;-76
2023/05/28 01:45:39;;;;;;;0.50;0.50;;;11.30;1.00;;;;;;5047456;28;20514;-77
2023/05/28 01:48:07;;;;;;;0.45;0.45;;;11.10;40.70;;;;;;5046937;28;20446;-77
2023/05/28 01:50:34;;;;;;;1.20;0.80;;;10.90;99.90;;;;;;5047644;28;20432;-77
2023/05/28 01:53:00;;;;;;;0.45;0.45;;;10.80;99.90;;;;;;5047252;28;20434;-77
2023/05/28 01:55:28;;;;;;;1.37;1.27;;;10.70;1.00;;;;;;5045899;28;20439;-77
2023/05/28 01:57:55;;;;;;;7.20;0.63;;;10.60;1.00;;;;;;5046096;28;20542;-76
2023/05/28 02:00:22;;;;;;;1.60;1.05;;;10.50;13.20;;;;;;5046611;28;20439;-77
2023/05/28 02:02:49;;;;;;;0.30;0.30;;;10.50;99.90;;;;;;5050064;28;20847;-77
2023/05/28 02:05:17;;;;;;;0.55;0.43;;;10.60;99.90;;;;;;5043597;28;20432;-77
2023/05/28 02:07:43;;;;;;;0.90;0.38;;;10.60;99.90;;;;;;5043981;28;20431;-77
2023/05/28 02:10:10;;;;;;;0.30;0.30;;;10.60;99.90;;;;;;5045547;28;20508;-77
2023/05/28 02:12:37;;;;;;;2.50;0.80;;;10.60;99.90;;;;;;5056249;28;20446;-77
2023/05/28 02:15:05;;;;;;;1.80;0.90;;;10.60;99.90;;;;;;5049645;28;20518;-76
2023/05/28 02:17:37;;;;;;;1.00;0.80;;;10.50;99.90;;;;;;5048055;28;20456;-76
2023/05/28 02:20:04;;;;;;;0.50;0.50;;;10.60;99.90;;;;;;5046049;28;20503;-76
2023/05/28 02:22:32;;;;;;;0.60;0.40;;;10.50;99.90;;;;;;5051502;28;20439;-77
2023/05/28 02:25:01;;;;;;;0.55;0.55;;;10.40;99.90;;;;;;5044670;28;20601;-77
2023/05/28 02:27:27;;;;;;;1.23;0.55;;;10.30;1.00;;;;;;5050878;28;20691;-77
2023/05/28 02:29:57;;;;;;;0.32;0.32;;;10.30;1.00;;;;;;5047679;28;20713;-77
2023/05/28 02:32:24;;;;;;;0.50;0.50;;;10.20;99.90;;;;;;5046608;28;20432;-77
2023/05/28 02:34:54;;;;;;;0.60;0.40;;;10.10;1.00;;;;;;5046913;28;20438;-77
2023/05/28 02:37:23;;;;;;;0.63;0.63;;;10.10;1.00;;;;;;5047321;28;20444;-77
2023/05/28 02:39:50;;;;;;;0.50;0.50;;;10.00;99.90;;;;;;5045893;28;20437;-76
2023/05/28 02:42:17;;;;;;;0.70;0.70;;;9.90;99.90;;;;;;5050658;28;20481;-76
2023/05/28 02:44:44;;;;;;;1.50;0.70;;;9.90;1.00;;;;;;5044766;28;23313;-76
2023/05/28 02:47:14;;;;;;;1.40;1.10;;;9.90;1.00;;;;;;5048964;28;20445;-76
2023/05/28 02:49:40;;;;;;;0.47;0.47;;;9.90;1.00;;;;;;5047798;28;20587;-77
2023/05/28 02:52:07;;;;;;;1.08;0.55;;;9.90;1.00;;;;;;5048363;28;20437;-77
2023/05/28 02:54:34;;;;;;;0.45;0.45;;;10.00;1.00;;;;;;5050810;28;20423;-77
2023/05/28 02:57:03;;;;;;;0.30;0.30;;;10.10;99.90;;;;;;5048317;28;20514;-77
2023/05/28 02:59:30;;;;;;;0.38;0.38;;;10.10;69.10;;;;;;5045772;28;20508;-77
2023/05/28 03:01:57;;;;;;;0.17;0.17;;;10.20;1.00;;;;;;5043248;28;20534;-77
2023/05/28 03:04:23;;;;;;;0.20;0.20;;;10.10;99.90;;;;;;5046352;28;20483;-77
2023/05/28 03:06:50;;;;;;;0.43;0.43;;;10.10;1.00;;;;;;5045178;28;20459;-77
2023/05/28 03:09:17;;;;;;;0.77;0.77;;;10.00;1.00;;;;;;5046605;28;20495;-77
2023/05/28 03:11:44;;;;;;;0.50;0.50;;;9.90;1.00;;;;;;5047762;28;20520;-78
2023/05/28 03:14:10;;;;;;;0.88;0.88;;;9.90;7.60;;;;;;5043732;28;20445;-77
2023/05/28 03:16:37;;;;;;;0.23;0.23;;;9.80;99.90;;;;;;5047223;28;20443;-78
2023/05/28 03:19:04;;;;;;;2.90;0.80;;;9.80;1.00;;;;;;5046058;28;20901;-77
2023/05/28 03:21:31;;;;;;;0.17;0.17;;;9.70;1.00;;;;;;5044937;28;20773;-77
2023/05/28 03:23:58;;;;;;;0.77;0.65;;;9.60;99.90;;;;;;5053312;28;20526;-77
2023/05/28 03:26:25;;;;;;;0.30;0.30;;;9.50;99.90;;;;;;5045309;28;20511;-77
2023/05/28 03:28:51;;;;;;;0.60;0.60;;;9.50;99.90;;;;;;5046874;28;20434;-77
2023/05/28 03:31:20;;;;;;;0.68;0.68;;;9.50;99.90;;;;;;5051154;28;20423;-78
2023/05/28 03:33:46;;;;;;;1.20;0.80;;;9.50;99.90;;;;;;5045959;28;20533;-77
2023/05/28 03:36:13;;;;;;;0.50;0.50;;;9.40;99.90;;;;;;5048054;28;20544;-77
2023/05/28 03:38:40;;;;;;;0.30;0.30;;;9.40;1.00;;;;;;5046401;28;20831;-78
2023/05/28 03:41:07;;;;;;;0.40;0.40;;;9.40;1.00;;;;;;5044788;28;20842;-78
2023/05/28 03:43:34;;;;;;;0.60;0.60;;;9.40;7.80;;;;;;5051796;28;20436;-78
2023/05/28 03:46:01;;;;;;;4.50;0.50;;;9.40;2.50;;;;;;5049319;28;20439;-77
2023/05/28 03:48:28;;;;;;;1.20;0.90;;;9.40;1.00;;;;;;5045439;28;20519;-78
2023/05/28 03:50:55;;;;;;;0.50;0.50;;;9.50;90.00;;;;;;5049044;28;20531;-76
2023/05/28 03:53:22;;;;;;;0.40;0.40;;;9.50;19.60;;;;;;5047191;28;20912;-77
2023/05/28 03:55:51;;;;;;;4.40;0.70;;;9.60;1.00;;;;;;5051202;28;20518;-77
2023/05/28 03:58:18;;;;;;;0.40;0.40;;;9.70;1.00;;;;;;5052518;28;20430;-77
2023/05/28 04:00:45;;;;;;;1.30;0.60;;;9.70;99.90;;;;;;5047521;28;20930;-78
2023/05/28 04:03:13;;;;;;;1.20;0.98;;;9.80;99.90;;;;;;5044843;28;20459;-77
2023/05/28 04:05:42;;;;;;;0.40;0.40;;;9.90;1.00;;;;;;5048237;28;20846;-77
2023/05/28 04:08:09;;;;;;;5.00;0.70;;;10.00;1.00;;;;;;5049828;28;20485;-77
2023/05/28 04:10:36;;;;;;;0.47;0.47;;;10.00;99.90;;;;;;5048972;28;20482;-77
2023/05/28 04:13:02;;;;;;;0.32;0.32;;;10.00;99.90;;;;;;5049678;28;20429;-77
2023/05/28 04:15:29;;;;;;;1.00;0.68;;;10.10;1.00;;;;;;5045588;28;20665;-77
2023/05/28 04:17:56;;;;;;;0.40;0.40;;;10.20;99.90;;;;;;5048899;28;20802;-77
2023/05/28 04:20:23;;;;;;;0.20;0.20;;;10.20;99.90;;;;;;5047200;28;20425;-77
2023/05/28 04:22:50;;;;;;;0.63;0.63;;;10.30;1.00;;;;;;5047385;28;20946;-77
2023/05/28 04:25:18;;;;;;;0.40;0.40;;;10.40;1.00;;;;;;5048846;28;21613;-77
2023/05/28 04:27:47;;;;;;;1.20;0.65;;;10.50;99.90;;;;;;5049261;28;20522;-77
2023/05/28 04:30:14;;;;;;;2.50;1.00;;;10.60;1.00;;;;;;5042879;28;20437;-77
2023/05/28 04:32:41;;;;;;;1.10;1.10;;;10.70;1.00;;;;;;5050592;28;20437;-77
2023/05/28 04:35:08;;;;;;;1.10;0.45;;;10.80;99.90;;;;;;5043802;28;20428;-78
2023/05/28 04:37:39;;;;;;;0.30;0.30;;;10.90;99.90;;;;;;5048504;28;20429;-77
2023/05/28 04:40:07;;;;;;;0.20;0.20;;;11.10;99.90;;;;;;5040634;28;20435;-76
2023/05/28 04:42:34;;;;;;;0.32;0.32;;;11.60;1.00;;;;;;5045431;28;20427;-76
2023/05/28 04:45:00;;;;;;;0.90;0.50;;;12.20;99.90;;;;;;5044837;28;20451;-75
2023/05/28 04:47:27;;;;;;;1.88;0.35;;;12.90;1.00;;;;;;5048461;28;20429;-75
2023/05/28 04:49:57;;;;;;;0.50;0.50;;;13.40;99.90;;;;;;5045368;28;20429;-75
2023/05/28 04:52:24;;;;;;;1.40;1.30;;;14.00;99.90;;;;;;5043395;28;20430;-75
2023/05/28 04:54:51;;;;;;;0.63;0.63;;;14.40;99.90;;;;;;5039967;28;20583;-75
2023/05/28 04:57:18;;;;;;;0.40;0.40;;;14.80;99.90;;;;;;5045973;28;20804;-76
2023/05/28 04:59:48;;;;;;;0.90;0.90;;;15.30;99.90;;;;;;5047224;28;20429;-76
2023/05/28 05:02:16;;;;;;;0.30;0.30;;;15.40;99.90;;;;;;5045961;28;20462;-76
2023/05/28 05:04:43;;;;;;;0.30;0.30;;;15.70;99.90;;;;;;5048053;28;20701;-76
2023/05/28 05:07:14;;;;;;;0.32;0.32;;;16.00;99.90;;;;;;5049791;28;20427;-75
2023/05/28 05:09:41;;;;;;;0.10;0.10;;;16.30;99.90;;;;;;5045222;28;20439;-76
2023/05/28 05:12:08;;;;;;;0.40;0.32;;;16.70;99.90;;;;;;5046247;28;20487;-75
2023/05/28 05:14:35;;;;;;;0.60;0.60;;;17.30;99.90;;;;;;5047493;28;21000;-75
2023/05/28 05:17:08;;;;;;;0.47;0.47;;;17.70;99.90;;;;;;5048660;28;20427;-76
2023/05/28 05:19:35;;;;;;;0.82;0.38;;;17.80;99.90;;;;;;5053451;28;20454;-76
2023/05/28 05:22:03;;;;;;;0.30;0.30;;;17.80;99.90;;;;;;5051167;28;20442;-76
2023/05/28 05:24:31;;;;;;;1.20;1.10;;;17.70;99.90;;;;;;5047474;28;20457;-76
2023/05/28 05:26:58;;;;;;;0.33;0.33;;;17.90;99.90;;;;;;5048359;28;20450;-76
2023/05/28 05:29:25;;;;;;;0.50;0.50;;;18.00;99.90;;;;;;5048047;28;20803;-76
2023/05/28 05:31:51;;;;;;;0.63;0.57;;;18.10;99.90;;;;;;5046272;28;20481;-76
2023/05/28 05:34:18;;;;;;;1.92;1.33;;;18.20;99.90;;;;;;5053101;28;20529;-76
2023/05/28 05:36:45;;;;;;;0.70;0.70;;;18.50;99.90;;;;;;5051984;28;20904;-76
2023/05/28 05:39:13;;;;;;;2.10;0.50;;;18.80;99.90;;;;;;5051636;28;20508;-76
2023/05/28 05:41:39;;;;;;;2.00;1.00;;;19.00;99.90;;;;;;5046395;28;20552;-77
2023/05/28 05:44:06;;;;;;;0.85;0.75;;;18.90;99.90;;;;;;5050173;28;20449;-76
2023/05/28 05:46:33;;;;;;;0.70;0.70;;;19.10;99.90;;;;;;5046917;28;20799;-77
2023/05/28 05:49:00;;;;;;;0.43;0.43;;;19.40;99.90;;;;;;5046091;28;20437;-76
2023/05/28 05:51:27;;;;;;;0.60;0.50;;;19.50;99.90;;;;;;5048972;28;20529;-77
2023/05/28 05:53:54;;;;;;;3.05;0.85;;;19.80;99.90;;;;;;5044562;28;20502;-77
2023/05/28 05:56:21;;;;;;;0.50;0.50;;;19.80;99.90;;;;;;5014180;28;20496;-76
2023/05/28 05:58:47;;;;;;;0.50;0.50;;;20.00;99.90;;;;;;5021090;28;20448;-77
2023/05/28 06:01:17;;;;;;;0.43;0.38;;;20.10;99.90;;;;;;5028033;28;20994;-76
2023/05/28 06:03:44;;;;;;;0.60;0.50;;;20.50;99.90;;;;;;5031234;28;20901;-76
2023/05/28 06:06:11;;;;;;;6.90;0.90;;;21.00;99.90;;;;;;5063312;28;20443;-76
2023/05/28 06:08:39;;;;;;;1.17;1.07;;;21.50;99.90;;;;;;5028049;28;20567;-76
2023/05/28 06:11:07;;;;;;;0.63;0.63;;;21.50;99.90;;;;;;5062732;28;20836;-77
2023/05/28 06:13:37;;;;;;;1.25;1.05;;;21.70;99.90;;;;;;5028280;28;20469;-76
2023/05/28 06:16:04;;;;;;;0.68;0.60;;;21.80;99.90;;;;;;5060220;28;20433;-76
2023/05/28 06:18:31;;;;;;;0.35;0.35;;;21.80;99.90;;;;;;5033508;28;20701;-76
2023/05/28 06:20:58;;;;;;;0.52;0.52;;;22.20;99.90;;;;;;5034172;28;20508;-76
2023/05/28 06:23:25;;;;;;;0.50;0.40;;;22.70;99.90;;;;;;5063398;28;20421;-77
2023/05/28 06:25:52;;;;;;;2.57;0.63;;;22.90;99.90;;;;;;5033306;28;20447;-76
2023/05/28 06:28:19;;;;;;;1.10;1.10;;;23.10;99.90;;;;;;5030198;28;20920;-77
2023/05/28 06:30:46;;;;;;;0.50;0.50;;;22.90;99.90;;;;;;5029760;28;22286;-77
2023/05/28 06:33:13;;;;;;;0.40;0.40;;;22.80;99.90;;;;;;5032323;28;20479;-78
2023/05/28 06:35:40;;;;;;;0.52;0.52;;;22.60;99.90;;;;;;5032505;28;20524;-78
2023/05/28 06:38:06;;;;;;;0.60;0.60;;;22.40;99.90;;;;;;5030578;28;20433;-78
2023/05/28 06:40:33;;;;;;;0.30;0.30;;;22.40;99.90;;;;;;5029011;28;20433;-77
2023/05/28 06:43:01;;;;;;;0.28;0.28;;;22.30;99.90;;;;;;5033419;28;20457;-78
2023/05/28 06:45:28;;;;;;;0.57;0.57;;;22.00;99.90;;;;;;5060601;28;20478;-78
2023/05/28 06:47:55;;;;;;;0.38;0.38;;;22.10;99.90;;;;;;5034026;28;20747;-77
2023/05/28 06:50:22;;;;;;;0.80;0.50;;;22.40;99.90;;;;;;5031835;28;20941;-78
2023/05/28 06:52:49;;;;;;;0.52;0.43;;;22.70;99.90;;;;;;5033782;28;20441;-77
2023/05/28 06:55:17;;;;;;;1.35;0.95;;;23.00;99.90;;;;;;5031920;28;20543;-77
2023/05/28 06:57:44;;;;;;;0.50;0.50;;;23.20;99.90;;;;;;5033040;28;20437;-78
2023/05/28 07:00:14;;;;;;;0.30;0.30;;;23.30;99.90;;;;;;5029143;28;20430;-77
2023/05/28 07:02:40;;;;;;;0.98;0.65;;;23.70;99.90;;;;;;5028298;28;20437;-79
2023/05/28 07:05:07;;;;;;;1.20;0.80;;;23.80;99.90;;;;;;5034458;28;20438;-77
2023/05/28 07:07:35;;;;;;;0.40;0.40;;;23.80;99.90;;;;;;5029657;28;20913;-78
2023/05/28 07:10:02;;;;;;;1.05;0.75;;;24.00;99.90;;;;;;5030951;28;20433;-78
2023/05/28 07:12:32;;;;;;;1.00;0.70;;;24.10;99.90;;;;;;5032155;28;20437;-77
2023/05/28 07:14:59;;;;;;;0.50;0.50;;;24.20;99.90;;;;;;5028368;28;20432;-77
2023/05/28 07:17:26;;;;;;;1.20;0.77;;;24.30;99.90;;;;;;5030892;28;20484;-77
2023/05/28 07:19:53;;;;;;;3.22;0.82;;;24.50;99.90;;;;;;5031312;28;20473;-78
2023/05/28 07:22:19;;;;;;;0.40;0.40;;;24.60;99.90;;;;;;5030438;28;20435;-78
2023/05/28 07:24:46;;;;;;;2.90;0.80;;;24.70;99.90;;;;;;5033545;28;20447;-79
2023/05/28 07:27:13;;;;;;;1.30;1.00;;;24.60;99.90;;;;;;5033191;28;20576;-77
2023/05/28 07:29:40;;;;;;;1.40;0.90;;;24.70;99.90;;;;;;5031926;28;20429;-77
2023/05/28 07:32:10;;;;;;;0.50;0.50;;;24.30;99.90;;;;;;5034675;28;20516;-78
2023/05/28 07:34:38;;;;;;;0.40;0.40;;;24.00;99.90;;;;;;5033934;28;20461;-78
2023/05/28 07:37:05;;;;;;;2.70;1.10;;;24.40;99.90;;;;;;5030109;28;20433;-77
2023/05/28 07:39:34;;;;;;;0.55;0.55;;;24.60;99.90;;;;;;5060716;28;20946;-77
2023/05/28 07:42:01;;;;;;;0.57;0.50;;;24.90;99.90;;;;;;5031989;28;20533;-78
2023/05/28 07:44:28;;;;;;;0.55;0.55;;;25.10;99.90;;;;;;5031229;28;20436;-78
2023/05/28 07:46:54;;;;;;;1.00;1.00;;;25.30;99.90;;;;;;5030943;28;20495;-78
2023/05/28 07:49:21;;;;;;;0.45;0.45;;;25.30;99.90;;;;;;5029335;28;20528;-78
2023/05/28 07:51:48;;;;;;;1.73;0.80;;;25.30;99.90;;;;;;5028367;28;20435;-78
2023/05/28 07:54:15;;;;;;;0.70;0.70;;;24.80;99.90;;;;;;5032567;28;20438;-78
2023/05/28 07:56:42;;;;;;;0.80;0.80;;;24.50;99.90;;;;;;5030900;28;20440;-78
2023/05/28 07:59:09;;;;;;;0.67;0.67;;;24.20;99.90;;;;;;5027409;28;20546;-78
2023/05/28 08:01:40;;;;;;;1.38;1.10;;;23.70;99.90;;;;;;5029182;28;21054;-78
2023/05/28 08:04:09;;;;;;;0.52;0.52;;;23.90;99.90;;;;;;5029507;28;20431;-76
2023/05/28 08:06:36;;;;;;;0.47;0.47;;;23.70;99.90;;;;;;5031025;28;20521;-76
2023/05/28 08:09:06;;;;;;;0.90;0.90;;;24.10;99.90;;;;;;5058978;28;21532;-78
2023/05/28 08:11:34;;;;;;;1.80;0.75;;;24.40;99.90;;;;;;5028573;28;21031;-77
2023/05/28 08:14:01;;;;;;;2.80;0.70;;;24.40;99.90;;;;;;5029412;28;20440;-78
2023/05/28 08:16:27;;;;;;;0.60;0.60;;;24.70;99.90;;;;;;5032338;28;20543;-77
2023/05/28 08:18:54;;;;;;;0.50;0.50;;;24.50;99.90;;;;;;5031481;28;20441;-77
2023/05/28 08:21:23;;;;;;;1.10;0.70;;;23.70;99.90;;;;;;5031206;28;20919;-78
2023/05/28 08:23:54;;;;;;;6.97;6.30;;;23.70;99.90;;;;;;5033940;28;20848;-77
2023/05/28 08:26:21;;;;;;;0.25;0.25;;;24.20;99.90;;;;;;5032424;28;20587;-78
2023/05/28 08:28:49;;;;;;;8.40;4.97;;;24.70;99.90;;;;;;5033098;28;20527;-78
2023/05/28 08:31:16;;;;;;;2.35;1.25;;;25.30;99.90;;;;;;5029649;28;20429;-78
2023/05/28 08:33:45;;;;;;;0.95;0.70;;;25.50;99.90;;;;;;5031849;28;21193;-77
2023/05/28 08:36:11;;;;;;;0.55;0.55;;;25.70;99.90;;;;;;5034311;28;20437;-78
2023/05/28 08:38:42;;;;;;;1.17;0.90;;;26.10;99.90;;;;;;5032273;28;20914;-78
2023/05/28 08:41:12;;;;;;;0.60;0.50;;;26.00;99.90;;;;;;5032420;28;20437;-77
2023/05/28 08:43:41;;;;;;;0.60;0.60;;;25.80;99.90;;;;;;5029146;28;20818;-77
2023/05/28 08:46:08;;;;;;;0.50;0.50;;;25.90;99.90;;;;;;5029487;28;20469;-75
2023/05/28 08:48:40;;;;;;;0.87;0.87;;;25.50;99.90;;;;;;5028984;28;20439;-75
2023/05/28 08:51:06;;;;;;;0.70;0.70;;;25.90;99.90;;;;;;5059707;28;20435;-74
2023/05/28 08:53:40;;;;;;;2.92;0.95;;;25.80;99.90;;;;;;5030767;28;20437;-75
2023/05/28 08:56:09;;;;;;;0.80;0.80;;;26.20;99.90;;;;;;5031180;28;20854;-75
2023/05/28 08:58:40;;;;;;;2.35;1.27;;;26.50;99.90;;;;;;5031619;28;20464;-76
2023/05/28 09:01:10;;;;;;;3.00;0.70;;;26.50;99.90;;;;;;5027408;28;20433;-76
2023/05/28 09:03:40;;;;;;;0.60;0.60;;;26.50;99.90;;;;;;5025891;28;20470;-76
2023/05/28 09:06:07;;;;;;;3.00;0.90;;;26.00;99.90;;;;;;5028105;28;21151;-75
2023/05/28 09:08:35;;;;;;;1.20;1.00;;;26.30;99.90;;;;;;5028177;28;20517;-76
2023/05/28 09:11:12;;;;;;;0.80;0.80;;;26.10;99.90;;;;;;5029512;28;20433;-77
2023/05/28 09:13:44;;;;;;;1.80;1.02;;;25.00;99.90;;;;;;5027071;28;20551;-75
2023/05/28 09:16:11;;;;;;;1.23;1.13;;;25.00;99.90;;;;;;5031197;28;20522;-76
2023/05/28 09:18:44;;;;;;;1.30;1.00;;;25.50;99.90;;;;;;5029647;28;20436;-75
2023/05/28 09:21:14;;;;;;;0.90;0.77;;;25.90;99.90;;;;;;5030083;28;20456;-75
2023/05/28 09:23:44;;;;;;;0.60;0.60;;;26.70;99.90;;;;;;5025350;28;20460;-76
2023/05/28 09:26:11;;;;;;;1.35;1.17;;;27.00;99.90;;;;;;5027579;28;20859;-76
2023/05/28 09:28:42;;;;;;;0.75;0.75;;;27.60;99.90;;;;;;5029515;28;20433;-76
2023/05/28 09:31:10;;;;;;;2.00;1.10;;;27.90;99.90;;;;;;5057938;28;20442;-76
2023/05/28 09:33:47;;;;;;;3.20;0.70;;;27.70;99.90;;;;;;5029705;28;20923;-76
2023/05/28 09:36:17;;;;;;;0.50;0.40;;;27.60;99.90;;;;;;5060277;28;20985;-76
2023/05/28 09:38:45;;;;;;;0.65;0.65;;;27.60;99.90;;;;;;5029444;28;20522;-76
2023/05/28 09:41:22;;;;;;;1.50;0.90;;;27.40;99.90;;;;;;5031667;28;20461;-76
2023/05/28 09:44:00;;;;;;;1.10;0.80;;;26.90;99.90;;;;;;5033554;28;20441;-76
2023/05/28 09:46:29;;;;;;;0.60;0.50;;;26.60;99.90;;;;;;5035761;28;20511;-76
2023/05/28 09:48:57;;;;;;;1.40;0.70;;;26.30;99.90;;;;;;5065791;28;20429;-76
2023/05/28 09:51:28;;;;;;;1.20;1.10;;;26.00;99.90;;;;;;5032276;28;20433;-76
2023/05/28 09:53:58;;;;;;;1.10;1.00;;;26.20;99.90;;;;;;5036028;28;20447;-76
2023/05/28 09:56:31;;;;;;;0.75;0.75;;;26.50;99.90;;;;;;5035783;28;20434;-77
2023/05/28 09:59:06;;;;;;;1.15;0.60;;;26.40;99.90;;;;;;5033644;28;20463;-76
2023/05/28 10:01:47;;;;;;;0.80;0.80;;;26.50;99.90;;;;;;5033850;28;20445;-76
2023/05/28 10:04:22;;;;;;;1.42;0.65;;;25.90;99.90;;;;;;5035372;28;20478;-76
2023/05/28 10:06:49;;;;;;;0.80;0.80;;;25.60;99.90;;;;;;5033036;28;20459;-76
2023/05/28 10:09:25;;;;;;;0.60;0.55;;;25.80;99.90;;;;;;5035434;28;20456;-76
2023/05/28 10:12:14;;;;;;;0.77;0.77;;;26.30;99.90;;;;;;5035138;28;20456;-75
2023/05/28 10:14:46;;;;;;;1.00;0.80;;;26.50;99.90;;;;;;5033214;28;20432;-75
2023/05/28 10:17:14;;;;;;;0.93;0.77;;;26.60;99.90;;;;;;5037254;28;20507;-76
2023/05/28 10:19:48;;;;;;;2.97;1.58;;;27.10;99.90;;;;;;5037159;28;20432;-75
2023/05/28 10:22:16;;;;;;;1.90;1.00;;;27.40;99.90;;;;;;5032496;28;20484;-75
2023/05/28 10:24:44;;;;;;;1.08;1.00;;;27.80;99.90;;;;;;5064923;28;21079;-76
2023/05/28 10:27:15;;;;;;;3.60;0.93;;;27.20;99.90;;;;;;5037100;28;20437;-76
2023/05/28 10:29:43;;;;;;;0.77;0.77;;;27.60;99.90;;;;;;5035682;28;20439;-75
2023/05/28 10:32:16;;;;;;;3.13;0.90;;;27.10;99.90;;;;;;5063976;28;20460;-77
2023/05/28 10:34:44;;;;;;;0.95;0.88;;;27.30;99.90;;;;;;5034582;28;20429;-76
2023/05/28 10:37:22;;;;;;;0.65;0.65;;;27.50;99.90;;;;;;5033892;28;20468;-76
2023/05/28 10:39:49;;;;;;;0.88;0.65;;;27.60;99.90;;;;;;5035882;28;20938;-76
2023/05/28 10:42:20;;;;;;;1.08;0.98;;;27.60;99.90;;;;;;5033529;28;20941;-76
2023/05/28 10:44:59;;;;;;;1.30;0.63;;;27.90;99.90;;;;;;5063039;28;20848;-78
2023/05/28 10:47:42;;;;;;;0.98;0.98;;;28.40;99.90;;;;;;5034454;28;20579;-77
2023/05/28 10:50:08;;;;;;;1.67;1.02;;;28.70;99.90;;;;;;5033859;28;20429;-77
2023/05/28 10:53:09;;;;;;;0.80;0.80;;;28.70;99.90;;;;;;5033160;28;20445;-78
2023/05/28 10:55:53;;;;;;;1.20;0.93;;;28.70;99.90;;;;;;5031548;28;20510;-77
2023/05/28 10:58:35;;;;;;;1.38;1.27;;;28.70;99.90;;;;;;5033681;28;20500;-78
2023/05/28 11:01:22;;;;;;;1.10;0.80;;;27.90;99.90;;;;;;5066887;28;20499;-76
2023/05/28 11:03:54;;;;;;;1.15;0.95;;;27.80;99.90;;;;;;5033514;28;20548;-78
2023/05/28 11:06:25;;;;;;;1.15;1.10;;;27.70;99.90;;;;;;5032450;28;21116;-77
2023/05/28 11:09:02;;;;;;;1.08;0.98;;;26.90;99.90;;;;;;5033758;28;20529;-76
2023/05/28 11:11:29;;;;;;;4.20;0.98;;;26.80;99.90;;;;;;5034657;28;20963;-75
2023/05/28 11:14:01;;;;;;;0.80;0.80;;;27.00;99.90;;;;;;5032372;28;20429;-76
2023/05/28 11:16:31;;;;;;;0.95;0.65;;;27.20;99.90;;;;;;5029792;28;20436;-76
2023/05/28 11:19:08;;;;;;;0.75;0.75;;;27.70;99.90;;;;;;5034598;28;20586;-76
2023/05/28 11:21:57;;;;;;;1.10;0.70;;;28.00;99.90;;;;;;5033318;28;20424;-76
2023/05/28 11:24:25;;;;;;;0.93;0.93;;;28.30;99.90;;;;;;5027314;28;20544;-77
2023/05/28 11:26:54;;;;;;;0.90;0.90;;;28.40;99.90;;;;;;5030831;28;20486;-77
2023/05/28 11:29:23;;;;;;;0.95;0.95;;;28.40;99.90;;;;;;5033170;28;20521;-77
2023/05/28 11:31:50;;;;;;;1.75;0.90;;;28.20;99.90;;;;;;5033457;28;21043;-77
2023/05/28 11:34:20;;;;;;;1.77;0.93;;;28.20;99.90;;;;;;5033785;28;20433;-77
2023/05/28 11:36:46;;;;;;;1.50;1.20;;;28.50;99.90;;;;;;5033408;28;20483;-77
2023/05/28 11:39:13;;;;;;;5.27;0.73;;;28.50;99.90;;;;;;5031619;28;20440;-77
2023/05/28 11:41:43;;;;;;;0.80;0.75;;;28.60;99.90;;;;;;5033325;28;20435;-76
2023/05/28 11:44:21;;;;;;;0.70;0.70;;;28.90;99.90;;;;;;5033128;28;20486;-77
2023/05/28 11:46:58;;;;;;;1.25;0.80;;;29.00;99.90;;;;;;5033902;28;20447;-77
2023/05/28 11:49:36;;;;;;;0.93;0.93;;;29.30;99.90;;;;;;5032830;28;20444;-77
2023/05/28 11:52:11;;;;;;;1.05;1.05;;;29.30;99.90;;;;;;5034520;28;20448;-77
2023/05/28 11:54:51;;;;;;;2.50;0.97;;;29.10;99.90;;;;;;5032338;28;20438;-77
2023/05/28 11:57:43;;;;;;;1.45;0.65;;;29.00;99.90;;;;;;5030671;28;20520;-77
2023/05/28 12:00:15;;;;;;;2.25;0.95;;;29.10;99.90;;;;;;5031079;28;20468;-76
2023/05/28 12:02:49;;;;;;;0.63;0.63;;;29.00;99.90;;;;;;5028592;28;20443;-77
2023/05/28 12:05:17;;;;;;;2.55;1.05;;;29.30;99.90;;;;;;5029203;28;20524;-77
2023/05/28 12:07:50;;;;;;;1.70;0.85;;;29.20;99.90;;;;;;5032549;28;20821;-77
2023/05/28 12:10:21;;;;;;;1.00;1.00;;;28.60;99.90;;;;;;5029227;28;20896;-77
2023/05/28 12:12:56;;;;;;;1.90;0.50;;;28.80;99.90;;;;;;5031407;28;20429;-76
2023/05/28 12:15:24;;;;;;;1.20;0.93;;;28.50;99.90;;;;;;5029484;28;20437;-77
2023/05/28 12:17:58;;;;;;;0.80;0.73;;;28.40;99.90;;;;;;5033659;28;20633;-77
2023/05/28 12:20:37;;;;;;;1.50;1.20;;;28.30;99.90;;;;;;5031197;28;20869;-76
2023/05/28 12:23:12;;;;;;;1.13;0.80;;;28.10;99.90;;;;;;5033783;28;20562;-76
2023/05/28 12:25:42;;;;;;;2.40;1.10;;;28.40;99.90;;;;;;5030154;28;20421;-76
2023/05/28 12:28:11;;;;;;;0.90;0.90;;;28.30;99.90;;;;;;5030452;28;20544;-76
2023/05/28 12:30:39;;;;;;;0.85;0.85;;;28.20;99.90;;;;;;5032179;28;20427;-76
2023/05/28 12:33:10;;;;;;;2.80;1.00;;;28.30;99.90;;;;;;5029309;28;20641;-76
2023/05/28 12:35:37;;;;;;;0.93;0.93;;;27.90;99.90;;;;;;5029013;28;20509;-76
2023/05/28 12:38:04;;;;;;;1.65;0.95;;;28.30;99.90;;;;;;5030792;28;20521;-77
2023/05/28 12:40:33;;;;;;;3.65;1.00;;;28.30;99.90;;;;;;5037445;28;20961;-77
2023/05/28 12:43:00;;;;;;;3.80;0.77;;;28.50;99.90;;;;;;5038314;28;20783;-76
2023/05/28 12:45:27;;;;;;;2.27;1.10;;;28.60;99.90;;;;;;5037978;28;20512;-77
2023/05/28 12:47:54;;;;;;;1.55;1.00;;;28.50;99.90;;;;;;5043246;28;20433;-77
2023/05/28 12:50:23;;;;;;;1.25;1.05;;;28.70;99.90;;;;;;5040326;28;20459;-77
2023/05/28 12:52:50;;;;;;;1.02;0.93;;;28.50;99.90;;;;;;5039813;28;20420;-76
2023/05/28 12:55:21;;;;;;;1.20;1.10;;;28.20;99.90;;;;;;5041454;28;20536;-76
2023/05/28 12:57:51;;;;;;;1.60;1.00;;;28.20;99.90;;;;;;5040884;28;20479;-76
2023/05/28 13:00:20;;;;;;;1.50;0.85;;;28.40;99.90;;;;;;5041024;28;20474;-76